Time;durP1;ratioP1;P1;durP2;ratioP2;P2;SDS_P1;SDS_P2;PMS_P1;PMS_P2;Temp;Humidity;BMP_temperature;BMP_pressure;BME280_temperature;BME280_humidity;BME280_pressure;Samples;Min_cycle;Max_cycle;Signal;HPM_P1;HPM_P2
2021/10/09 00:01:07;;;;;;;1.17;1.05;;;;;;;5.98;81.66;93946.28;5092714;28;20028;-48
2021/10/09 00:03:32;;;;;;;2.00;1.38;;;;;;;6.05;81.15;93951.22;5092403;28;20031;-49
2021/10/09 00:05:58;;;;;;;1.23;0.90;;;;;;;6.01;80.63;93948.03;5092276;28;20028;-48
2021/10/09 00:08:23;;;;;;;1.83;0.80;;;;;;;6.02;82.16;93946.03;5092361;28;20035;-48
2021/10/09 00:10:49;;;;;;;1.35;0.98;;;;;;;5.85;81.22;93915.97;5092066;28;20024;-49
2021/10/09 00:13:14;;;;;;;1.35;1.02;;;;;;;5.96;81.92;93929.59;5094699;28;20024;-49
2021/10/09 00:15:40;;;;;;;1.73;1.20;;;;;;;6.05;80.76;93939.53;5112548;28;20496;-49
2021/10/09 00:18:06;;;;;;;1.27;1.17;;;;;;;6.08;81.28;93941.25;5112528;28;20160;-48
2021/10/09 00:20:31;;;;;;;1.83;1.00;;;;;;;6.09;81.77;93948.22;5112533;28;20034;-48
2021/10/09 00:22:58;;;;;;;3.38;1.15;;;;;;;6.01;80.81;93925.34;5112709;28;20040;-48
2021/10/09 00:25:23;;;;;;;2.25;1.50;;;;;;;5.99;81.46;93922.38;5112649;28;20027;-49
2021/10/09 00:27:49;;;;;;;1.83;1.55;;;;;;;6.10;81.48;93942.25;5112332;28;20031;-48
2021/10/09 00:30:14;;;;;;;3.65;1.90;;;;;;;6.16;81.47;93941.44;5112271;28;20028;-48
2021/10/09 00:32:40;;;;;;;1.10;1.00;;;;;;;6.17;81.65;93940.97;5111397;28;20031;-49
2021/10/09 00:35:06;;;;;;;5.20;2.63;;;;;;;6.21;81.13;93935.19;5111634;28;20064;-48
2021/10/09 00:37:32;;;;;;;3.47;1.88;;;;;;;6.17;81.07;93929.25;5111830;28;20027;-48
2021/10/09 00:39:57;;;;;;;3.72;2.40;;;;;;;6.13;81.39;93927.50;5105829;28;20421;-50
2021/10/09 00:42:23;;;;;;;3.35;2.85;;;;;;;6.16;81.40;93922.25;5091760;28;20088;-50
2021/10/09 00:44:49;;;;;;;5.28;3.28;;;;;;;6.17;81.41;93923.75;5091794;28;20039;-48
2021/10/09 00:47:15;;;;;;;5.95;4.20;;;;;;;6.20;81.69;93917.25;5091804;28;20039;-50
2021/10/09 00:49:40;;;;;;;9.18;4.90;;;;;;;6.19;81.06;93916.50;5090756;28;20481;-49
2021/10/09 00:52:09;;;;;;;8.98;5.00;;;;;;;6.22;81.01;93920.22;5091680;28;20031;-49
2021/10/09 00:54:36;;;;;;;9.75;4.07;;;;;;;6.17;80.80;93923.75;5091475;28;20028;-50
2021/10/09 00:57:02;;;;;;;1.98;1.65;;;;;;;6.13;80.85;93915.06;5090489;28;20088;-51
2021/10/09 00:59:28;;;;;;;5.07;3.83;;;;;;;6.14;81.22;93922.78;5089940;28;20114;-49
2021/10/09 01:02:02;;;;;;;5.80;4.30;;;;;;;6.21;82.00;93916.00;5091660;28;20024;-50
2021/10/09 01:04:28;;;;;;;5.28;2.28;;;;;;;6.23;81.17;93910.75;5091430;28;20023;-49
2021/10/09 01:06:53;;;;;;;2.72;1.70;;;;;;;6.17;81.04;93910.06;5091241;28;20451;-49
2021/10/09 01:09:18;;;;;;;2.33;2.03;;;;;;;6.19;80.88;93902.81;5091419;28;20038;-49
2021/10/09 01:11:44;;;;;;;2.08;1.42;;;;;;;6.22;80.81;93906.50;5091422;28;20027;-49
2021/10/09 01:14:10;;;;;;;3.38;2.25;;;;;;;6.23;81.17;93906.03;5100121;28;20085;-50
2021/10/09 01:16:35;;;;;;;4.97;2.38;;;;;;;6.19;80.72;93902.81;5110046;28;20039;-48
2021/10/09 01:19:01;;;;;;;3.40;2.00;;;;;;;6.17;81.15;93905.31;5111720;28;20127;-50
2021/10/09 01:21:26;;;;;;;8.23;5.47;;;;;;;6.17;81.53;93910.81;5111270;28;20455;-50
2021/10/09 01:23:53;;;;;;;5.28;2.38;;;;;;;6.13;81.48;93902.84;5111234;28;20035;-51
2021/10/09 01:26:19;;;;;;;2.03;1.10;;;;;;;6.15;81.29;93907.06;5111381;28;20031;-47
2021/10/09 01:28:47;;;;;;;1.58;1.33;;;;;;;6.13;81.16;93907.56;5111194;28;20484;-49
2021/10/09 01:31:12;;;;;;;1.10;0.93;;;;;;;6.07;81.19;93906.88;5104878;28;20031;-49
2021/10/09 01:33:38;;;;;;;1.13;0.95;;;;;;;6.07;81.75;93899.38;5091779;28;20073;-48
2021/10/09 01:36:04;;;;;;;4.72;1.55;;;;;;;6.05;81.52;93907.38;5102916;28;20035;-49
2021/10/09 01:38:30;;;;;;;2.40;1.67;;;;;;;6.04;81.56;93894.91;5110990;28;20502;-49
2021/10/09 01:40:56;;;;;;;1.13;0.88;;;;;;;6.01;nan;93904.16;5110986;28;20089;-54
2021/10/09 01:43:23;;;;;;;1.45;0.82;;;;;;;6.01;82.23;93898.69;5111284;28;20028;-53
2021/10/09 01:45:48;;;;;;;1.38;0.80;;;;;;;6.05;82.39;93907.38;5110846;28;20020;-53
2021/10/09 01:48:15;;;;;;;0.70;0.70;;;;;;;6.06;82.31;93899.91;5111385;28;20096;-51
2021/10/09 01:50:42;;;;;;;1.63;0.52;;;;;;;6.10;82.16;93903.13;5110749;28;20532;-54
2021/10/09 01:53:08;;;;;;;0.63;0.63;;;;;;;6.12;82.11;93892.38;5111064;28;20027;-52
2021/10/09 01:55:37;;;;;;;1.10;0.90;;;;;;;6.03;82.43;93884.47;5111145;28;20499;-50
2021/10/09 01:58:06;;;;;;;1.05;0.98;;;;;;;6.16;81.46;93900.31;5110765;28;20030;-52
2021/10/09 02:00:33;;;;;;;1.25;1.15;;;;;;;6.17;81.52;93901.81;5110612;28;20024;-48
2021/10/09 02:03:06;;;;;;;0.70;0.70;;;;;;;6.16;82.28;93894.84;5110640;28;20036;-48
2021/10/09 02:05:33;;;;;;;1.13;0.98;;;;;;;6.06;81.39;93906.13;5110639;28;20042;-48
2021/10/09 02:07:58;;;;;;;1.75;0.95;;;;;;;6.04;81.83;93903.13;5110632;28;20035;-48
2021/10/09 02:10:24;;;;;;;1.05;0.75;;;;;;;5.99;81.74;93900.44;5110972;28;20020;-49
2021/10/09 02:12:50;;;;;;;1.75;1.60;;;;;;;6.03;82.03;93892.69;5110648;28;20020;-48
2021/10/09 02:15:20;;;;;;;0.95;0.68;;;;;;;5.99;81.74;93901.19;5110035;28;20069;-47
2021/10/09 02:25:54;;;;;;;0.93;0.80;;;;;;;5.96;82.43;93899.47;5110536;28;20069;-48
2021/10/09 02:28:21;;;;;;;1.45;1.30;;;;;;;5.95;82.19;93899.97;5110435;28;20035;-46
2021/10/09 02:30:47;;;;;;;1.38;0.88;;;;;;;5.91;82.12;93902.97;5110711;28;20106;-47
2021/10/09 02:33:13;;;;;;;1.55;1.08;;;;;;;5.98;82.54;93904.41;5110418;28;20031;-46
2021/10/09 02:35:39;;;;;;;1.17;0.98;;;;;;;6.01;82.50;93904.16;5110671;28;20016;-46
2021/10/09 02:38:07;;;;;;;1.60;1.10;;;;;;;6.00;82.09;93902.66;5110320;28;20511;-46
2021/10/09 02:40:32;;;;;;;0.93;0.80;;;;;;;5.89;82.28;93882.81;5110518;28;20023;-50
2021/10/09 02:42:58;;;;;;;0.88;0.88;;;;;;;5.89;81.75;93904.75;5110626;28;20026;-51
2021/10/09 02:45:23;;;;;;;0.85;0.77;;;;;;;5.92;82.40;93909.94;5110225;28;20019;-50
2021/10/09 02:47:49;;;;;;;1.05;0.85;;;;;;;5.90;82.40;93906.22;5110539;28;20063;-55
2021/10/09 02:50:14;;;;;;;1.17;0.80;;;;;;;5.89;82.20;93900.00;5110555;28;20484;-48
2021/10/09 02:52:41;;;;;;;2.92;1.25;;;;;;;5.83;82.10;93901.25;5110523;28;20533;-47
2021/10/09 02:55:07;;;;;;;1.30;1.00;;;;;;;5.79;82.06;93898.78;5110488;28;20384;-48
2021/10/09 02:57:33;;;;;;;0.82;0.80;;;;;;;5.71;82.80;93900.59;5110526;28;20026;-47
2021/10/09 02:59:58;;;;;;;1.38;1.05;;;;;;;5.76;83.27;93897.06;5110094;28;20032;-47
2021/10/09 03:02:24;;;;;;;1.20;1.00;;;;;;;5.75;82.67;93895.56;5110179;28;20026;-48
2021/10/09 03:04:49;;;;;;;1.15;1.05;;;;;;;5.78;82.71;93891.09;5110015;28;20020;-46
2021/10/09 03:07:15;;;;;;;2.30;1.85;;;;;;;5.73;82.62;93886.38;5110483;28;20031;-48
2021/10/09 03:09:40;;;;;;;0.82;0.80;;;;;;;5.77;82.49;93901.28;5110097;28;20035;-47
2021/10/09 03:12:05;;;;;;;1.23;0.73;;;;;;;5.72;82.15;93891.09;5110383;28;20019;-48
2021/10/09 03:14:31;;;;;;;0.77;0.70;;;;;;;5.80;82.35;93903.03;5113238;28;20024;-47
2021/10/09 03:16:56;;;;;;;1.60;1.08;;;;;;;5.80;82.58;93900.28;5114064;28;20032;-47
2021/10/09 03:19:22;;;;;;;1.20;1.10;;;;;;;5.76;81.84;93902.53;5113759;28;20089;-47
2021/10/09 03:21:47;;;;;;;1.30;1.05;;;;;;;5.79;82.42;93901.53;5113602;28;20024;-47
2021/10/09 03:24:13;;;;;;;2.63;1.75;;;;;;;5.84;82.81;93898.06;5113889;28;20031;-47
2021/10/09 03:26:39;;;;;;;1.27;1.17;;;;;;;5.82;82.73;93900.53;5113493;28;20024;-48
2021/10/09 03:29:04;;;;;;;1.45;0.80;;;;;;;5.89;82.13;93900.00;5104108;28;20073;-47
2021/10/09 03:31:30;;;;;;;1.25;1.00;;;;;;;5.95;82.56;93900.72;5093309;28;20031;-46
2021/10/09 03:33:55;;;;;;;2.25;1.60;;;;;;;5.94;82.39;93904.69;5093319;28;20485;-47
2021/10/09 03:36:21;;;;;;;2.05;1.55;;;;;;;5.91;81.50;93902.97;5092917;28;20485;-47
2021/10/09 03:38:46;;;;;;;5.05;3.03;;;;;;;5.99;81.88;93901.19;5092956;28;20020;-46
2021/10/09 03:41:13;;;;;;;5.05;2.95;;;;;;;6.05;81.60;93893.66;5093154;28;20024;-46
2021/10/09 03:43:39;;;;;;;4.97;3.42;;;;;;;6.04;81.23;93891.44;5092819;28;20690;-48
2021/10/09 03:46:13;;;;;;;3.58;2.15;;;;;;;6.05;81.34;93890.94;5092966;28;20020;-50
2021/10/09 03:54:06;;;;;;;6.05;3.50;;;;;;;6.02;81.02;93885.72;5092472;28;20093;-48
2021/10/09 03:56:32;;;;;;;5.70;3.40;;;;;;;6.04;81.36;93892.16;5092285;28;20032;-50
2021/10/09 03:58:57;;;;;;;9.18;4.72;;;;;;;6.04;81.58;93894.91;5092010;28;20020;-51
2021/10/09 04:01:23;;;;;;;9.32;4.43;;;;;;;6.06;81.07;93897.16;5092182;28;20035;-48
2021/10/09 04:03:48;;;;;;;5.18;3.58;;;;;;;6.02;81.46;93900.16;5092054;28;20020;-50
2021/10/09 04:06:14;;;;;;;8.05;6.30;;;;;;;6.06;81.41;93905.38;5091756;28;20024;-51
2021/10/09 04:08:39;;;;;;;10.25;7.03;;;;;;;6.05;81.00;93896.41;5092354;28;20152;-50
2021/10/09 04:11:04;;;;;;;9.57;5.40;;;;;;;6.09;81.66;93899.63;5091938;28;20027;-50
2021/10/09 04:13:30;;;;;;;2.38;2.05;;;;;;;6.13;80.99;93899.34;5096505;28;20023;-51
2021/10/09 04:15:55;;;;;;;2.13;1.98;;;;;;;6.14;80.93;93895.34;5111891;28;20032;-50
2021/10/09 04:18:21;;;;;;;1.17;1.05;;;;;;;6.09;80.35;93896.13;5112413;28;20031;-50
2021/10/09 04:20:46;;;;;;;2.00;1.83;;;;;;;6.07;80.82;93906.88;5111964;28;20027;-49
2021/10/09 04:23:12;;;;;;;2.33;1.73;;;;;;;6.06;80.44;93905.38;5112038;28;20023;-53
2021/10/09 04:25:37;;;;;;;5.78;2.88;;;;;;;6.04;81.23;93903.13;5099939;28;20024;-53
2021/10/09 04:28:03;;;;;;;3.97;2.67;;;;;;;6.00;80.71;93883.47;5091859;28;20036;-51
2021/10/09 04:30:28;;;;;;;3.85;2.70;;;;;;;6.02;80.39;93891.94;5091926;28;20134;-54
2021/10/09 04:32:54;;;;;;;5.63;3.92;;;;;;;6.02;80.43;93889.19;5091486;28;20536;-53
2021/10/09 04:35:19;;;;;;;5.53;4.05;;;;;;;6.02;80.92;93889.19;5091512;28;20016;-54
2021/10/09 04:37:45;;;;;;;12.63;7.32;;;;;;;5.97;80.61;93895.47;5091169;28;20073;-52
2021/10/09 04:40:11;;;;;;;9.02;4.40;;;;;;;5.98;81.09;93902.44;5091398;28;20020;-48
2021/10/09 04:42:36;;;;;;;5.95;3.63;;;;;;;5.98;81.18;93907.91;5091307;28;20389;-49
2021/10/09 04:45:02;;;;;;;3.78;1.88;;;;;;;6.03;80.73;93896.19;5091246;28;20046;-50
2021/10/09 04:47:28;;;;;;;2.85;2.10;;;;;;;6.07;80.60;93898.63;5091293;28;20057;-50
2021/10/09 04:49:53;;;;;;;6.40;4.25;;;;;;;6.07;80.82;93898.63;5091097;28;20028;-48
2021/10/09 04:52:19;;;;;;;34.22;5.75;;;;;;;6.07;80.51;93902.13;5091267;28;20093;-49
2021/10/09 04:54:44;;;;;;;3.15;2.80;;;;;;;6.08;80.90;93897.41;5091300;28;20054;-48
2021/10/09 04:57:10;;;;;;;22.25;12.57;;;;;;;6.03;80.83;93898.16;5091234;28;20501;-56
2021/10/09 04:59:35;;;;;;;5.90;4.13;;;;;;;6.01;80.61;93900.69;5091309;28;20498;-49
2021/10/09 05:02:00;;;;;;;4.80;3.72;;;;;;;6.02;80.71;93911.13;5090879;28;20024;-49
2021/10/09 05:04:26;;;;;;;7.35;5.20;;;;;;;5.95;80.78;93916.41;5091196;28;20031;-56
2021/10/09 05:06:51;;;;;;;7.43;4.68;;;;;;;5.97;81.38;93914.66;5090872;28;20019;-54
2021/10/09 05:09:17;;;;;;;4.70;3.80;;;;;;;5.97;81.00;93917.41;5090604;28;20043;-58
2021/10/09 05:11:42;;;;;;;14.88;5.15;;;;;;;6.02;81.15;93918.63;5090755;28;20039;-58
2021/10/09 05:14:08;;;;;;;4.20;3.55;;;;;;;6.05;80.85;93920.34;5100359;28;20107;-52
2021/10/09 05:16:33;;;;;;;46.80;21.88;;;;;;;6.08;80.96;93924.81;5110854;28;20036;-53
2021/10/09 05:18:59;;;;;;;87.93;37.45;;;;;;;6.10;81.13;93920.31;5110702;28;20034;-58
2021/10/09 05:21:24;;;;;;;19.40;9.32;;;;;;;6.16;81.48;93922.25;5103203;28;20024;-49
2021/10/09 05:23:50;;;;;;;7.38;3.80;;;;;;;6.23;80.80;93916.22;5090852;28;20028;-50
2021/10/09 05:26:15;;;;;;;4.85;3.65;;;;;;;6.11;79.96;93915.56;5090656;28;20023;-49
2021/10/09 05:28:48;;;;;;;3.03;2.00;;;;;;;6.07;80.40;93913.09;5090325;28;20111;-49
2021/10/09 05:31:25;;;;;;;3.50;2.40;;;;;;;6.10;81.12;93919.56;5090385;28;20028;-48
2021/10/09 05:33:53;;;;;;;5.53;4.32;;;;;;;6.08;80.59;93931.03;5090575;28;20039;-48
2021/10/09 05:36:19;;;;;;;2.70;2.35;;;;;;;6.11;80.62;93929.25;5090147;28;20020;-48
2021/10/09 05:38:45;;;;;;;6.50;3.78;;;;;;;6.19;80.65;93926.72;5090634;28;20413;-48
2021/10/09 05:41:10;;;;;;;4.20;3.17;;;;;;;6.21;80.69;93935.94;5090145;28;20034;-46
2021/10/09 05:43:36;;;;;;;8.70;6.00;;;;;;;6.22;80.37;93931.19;5090505;28;20031;-48
2021/10/09 05:46:01;;;;;;;7.88;5.43;;;;;;;6.15;80.27;93918.03;5090359;28;20028;-49
2021/10/09 05:48:27;;;;;;;7.15;3.30;;;;;;;6.25;80.33;93939.16;5090449;28;20040;-50
2021/10/09 05:58:44;;;;;;;3.38;2.55;;;;;;;6.22;79.45;93942.91;5089972;28;20036;-51
2021/10/09 07:01:09;;;;;;;4.35;4.05;;;;;;;6.80;78.48;93990.84;5091481;28;20104;-44
2021/10/09 07:03:34;;;;;;;5.95;5.38;;;;;;;6.78;77.95;93989.88;5093075;28;20027;-47
2021/10/09 07:06:00;;;;;;;3.03;2.25;;;;;;;6.75;78.47;93991.66;5093784;28;20077;-48
2021/10/09 07:08:26;;;;;;;6.05;3.80;;;;;;;6.51;77.83;93977.88;5093916;28;20035;-49
2021/10/09 07:10:52;;;;;;;4.85;3.20;;;;;;;6.67;77.86;94007.16;5093436;28;20077;-47
2021/10/09 07:13:18;;;;;;;4.50;2.20;;;;;;;6.68;78.42;93999.69;5108327;28;20027;-48
2021/10/09 07:15:43;;;;;;;4.93;3.60;;;;;;;6.70;77.75;94005.41;5093251;28;20058;-49
2021/10/09 07:18:11;;;;;;;4.68;2.85;;;;;;;6.75;78.61;93999.16;5093256;28;20035;-49
2021/10/09 07:20:36;;;;;;;5.95;4.13;;;;;;;6.77;77.97;94005.63;5093312;28;20111;-48
2021/10/09 07:23:03;;;;;;;6.35;4.18;;;;;;;6.78;78.61;93998.84;5093464;28;20051;-47
2021/10/09 07:25:29;;;;;;;7.90;4.63;;;;;;;6.76;78.28;93995.88;5093423;28;20408;-48
2021/10/09 07:27:54;;;;;;;6.32;4.68;;;;;;;6.86;78.25;93999.06;5096040;28;20031;-48
2021/10/09 07:30:20;;;;;;;6.00;3.13;;;;;;;6.82;77.95;93998.59;5103523;28;20051;-49
2021/10/09 07:32:46;;;;;;;3.38;3.08;;;;;;;6.87;78.65;94009.53;5107122;27;20094;-48
2021/10/09 07:35:12;;;;;;;3.72;3.30;;;;;;;6.87;77.93;94003.28;5104513;28;20472;-46
2021/10/09 07:37:38;;;;;;;2.25;2.00;;;;;;;6.89;77.34;94009.75;5103103;28;20075;-48
2021/10/09 07:40:04;;;;;;;3.45;2.35;;;;;;;6.91;78.12;94003.03;5101348;28;20099;-48
2021/10/09 07:42:30;;;;;;;3.90;2.20;;;;;;;6.94;78.24;94010.97;5100730;28;20024;-47
2021/10/09 07:44:55;;;;;;;4.03;2.20;;;;;;;7.00;77.55;94013.66;5106520;28;20018;-48
2021/10/09 07:47:21;;;;;;;3.13;2.58;;;;;;;7.01;78.07;93999.44;5103524;28;20028;-48
2021/10/09 07:49:46;;;;;;;3.42;2.80;;;;;;;7.06;77.73;94008.88;5097671;28;20031;-50
2021/10/09 07:52:12;;;;;;;4.35;2.22;;;;;;;7.00;76.83;94000.69;5099922;28;20055;-47
2021/10/09 07:54:38;;;;;;;2.72;2.03;;;;;;;7.01;77.14;94004.91;5098005;28;20073;-47
2021/10/09 07:57:04;;;;;;;1.48;1.33;;;;;;;7.06;77.79;94001.38;5098252;28;20496;-49
2021/10/09 07:59:29;;;;;;;10.02;2.50;;;;;;;7.05;77.42;94005.38;5100020;28;20681;-48
2021/10/09 08:01:55;;;;;;;4.25;2.60;;;;;;;7.03;77.56;93999.66;5094346;28;20019;-47
2021/10/09 08:04:20;;;;;;;5.18;2.80;;;;;;;7.10;76.55;93998.34;5094203;28;20428;-48
2021/10/09 08:06:46;;;;;;;14.75;6.72;;;;;;;7.14;76.94;94007.81;5100289;28;20020;-46
2021/10/09 08:09:13;;;;;;;8.23;4.75;;;;;;;7.15;77.16;94012.03;5097115;28;20032;-48
2021/10/09 08:11:39;;;;;;;11.35;5.90;;;;;;;7.15;77.55;94008.53;5103245;28;20111;-49
2021/10/09 08:14:05;;;;;;;9.50;5.45;;;;;;;7.19;77.63;94011.75;5097736;28;20653;-47
2021/10/09 08:16:31;;;;;;;6.20;3.15;;;;;;;7.21;77.09;94007.22;5100051;28;20163;-48
2021/10/09 08:19:01;;;;;;;1.90;1.42;;;;;;;7.23;76.80;94010.22;5090016;28;20071;-48
2021/10/09 08:21:28;;;;;;;11.18;5.78;;;;;;;7.19;76.00;94020.00;5097163;28;20038;-48
2021/10/09 08:40:13;;;;;;;3.10;2.80;;;;;;;7.67;75.83;94024.78;5089310;28;20051;-46
2021/10/09 08:42:39;;;;;;;3.78;2.92;;;;;;;7.63;75.25;94014.06;5089628;28;20103;-48
2021/10/09 08:45:06;;;;;;;6.28;2.72;;;;;;;7.72;75.09;94023.97;5089207;28;20027;-47
2021/10/09 08:47:34;;;;;;;4.80;3.38;;;;;;;7.79;75.55;94021.38;5089547;28;20415;-49
2021/10/09 08:50:00;;;;;;;2.78;2.50;;;;;;;7.71;74.84;94036.94;5089178;28;20093;-49
2021/10/09 08:52:26;;;;;;;4.53;4.05;;;;;;;7.71;75.65;94041.72;5089463;28;20028;-47
2021/10/09 08:54:52;;;;;;;3.20;2.50;;;;;;;7.68;75.35;94031.75;5089433;28;20464;-48
2021/10/09 08:57:20;;;;;;;1.80;1.50;;;;;;;7.56;75.07;94031.84;5088070;28;20028;-47
2021/10/09 09:00:05;;;;;;;2.60;1.85;;;;;;;7.65;75.98;94036.28;5089790;28;20028;-49
2021/10/09 09:02:35;;;;;;;3.95;3.28;;;;;;;7.62;75.79;94038.03;5089709;28;20047;-47
2021/10/09 09:05:25;;;;;;;5.72;2.25;;;;;;;7.64;76.15;94046.50;5089404;28;20693;-48
2021/10/09 09:27:43;;;;;;;0.80;0.80;;;;;;;7.50;76.41;94044.91;5109751;28;20054;-47
2021/10/09 09:35:33;;;;;;;2.67;2.33;;;;;;;7.65;76.42;94045.25;5108917;28;20519;-47
2021/10/09 09:40:36;;;;;;;16.73;3.15;;;;;;;7.82;77.52;94041.59;5108841;28;20102;-48
2021/10/09 09:43:02;;;;;;;5.97;5.00;;;;;;;7.84;77.10;94033.59;5108536;28;20024;-47
2021/10/09 09:45:27;;;;;;;2.83;2.40;;;;;;;8.02;77.37;94050.09;5095484;28;20161;-47
2021/10/09 09:47:55;;;;;;;1.27;1.13;;;;;;;8.08;76.16;94047.28;5102169;28;20036;-47
2021/10/09 09:50:21;;;;;;;6.10;2.75;;;;;;;8.14;76.36;94040.44;5103327;28;20034;-48
2021/10/09 09:52:47;;;;;;;2.40;2.20;;;;;;;8.25;76.55;94042.34;5088653;28;20027;-47
2021/10/09 09:55:15;;;;;;;2.10;1.90;;;;;;;8.36;76.15;94039.47;5088390;28;20024;-47
2021/10/09 09:57:41;;;;;;;2.05;1.73;;;;;;;8.44;75.58;94045.88;5086315;28;20711;-47
2021/10/09 10:00:07;;;;;;;2.17;1.98;;;;;;;8.48;75.99;94037.31;5087999;28;20059;-48
2021/10/09 10:02:38;;;;;;;1.83;1.42;;;;;;;8.46;75.50;94043.34;5094882;28;20085;-47
2021/10/09 10:05:04;;;;;;;1.30;1.20;;;;;;;8.44;75.09;94039.63;5108541;28;20023;-47
2021/10/09 10:07:30;;;;;;;2.33;1.70;;;;;;;8.36;75.03;94025.69;5108269;28;20038;-48
2021/10/09 10:09:55;;;;;;;2.80;2.20;;;;;;;8.54;76.15;94030.47;5107125;28;20031;-47
2021/10/09 10:12:23;;;;;;;1.65;1.50;;;;;;;8.65;76.38;94030.31;5108328;28;20169;-47
2021/10/09 10:14:49;;;;;;;1.95;1.73;;;;;;;8.81;76.42;94040.34;5108064;28;20035;-52
2021/10/09 10:17:44;;;;;;;2.13;1.85;;;;;;;8.87;75.93;94027.25;5108656;28;20020;-49
2021/10/09 10:20:09;;;;;;;4.80;3.70;;;;;;;8.93;74.99;94038.91;5108243;28;20577;-49
2021/10/09 10:22:35;;;;;;;2.70;2.28;;;;;;;8.96;75.19;94039.88;5111352;28;20023;-51
2021/10/09 10:25:01;;;;;;;1.02;1.00;;;;;;;8.88;74.22;94039.72;5112406;28;20077;-48
2021/10/09 10:27:38;;;;;;;4.07;1.10;;;;;;;8.81;74.43;94037.59;5112713;28;20031;-48
2021/10/09 10:30:16;;;;;;;1.42;1.33;;;;;;;8.84;74.85;94036.53;5112324;27;20024;-50
2021/10/09 10:32:46;;;;;;;1.30;1.20;;;;;;;8.84;74.33;94046.81;5112628;28;20062;-48
2021/10/09 10:35:30;;;;;;;1.80;1.70;;;;;;;8.80;74.13;94043.63;5112571;28;20055;-49
2021/10/09 10:38:11;;;;;;;6.88;6.18;;;;;;;8.77;74.23;94047.44;5112251;28;20568;-48
2021/10/09 10:40:49;;;;;;;1.30;1.20;;;;;;;8.72;73.58;94043.47;5112501;28;20115;-51
2021/10/09 10:46:20;;;;;;;2.13;1.92;;;;;;;8.78;74.02;94046.16;5113016;28;20159;-47
2021/10/09 10:51:47;;;;;;;3.13;2.55;;;;;;;8.64;73.74;94048.09;5112369;28;20034;-48
2021/10/09 10:59:27;;;;;;;7.55;6.60;;;;;;;8.53;75.79;94048.25;5099514;28;20040;-49
2021/10/09 11:02:21;;;;;;;4.85;4.45;;;;;;;8.48;74.91;94054.56;5091290;28;20039;-47
2021/10/09 11:05:01;;;;;;;3.38;2.80;;;;;;;8.45;74.79;94058.34;5090212;28;20413;-48
2021/10/09 11:07:31;;;;;;;7.20;3.67;;;;;;;8.36;75.02;94050.47;5091301;28;20036;-48
2021/10/09 11:10:03;;;;;;;3.00;2.47;;;;;;;8.37;75.85;94051.97;5091495;28;20027;-48
2021/10/09 11:12:49;;;;;;;4.18;3.25;;;;;;;8.39;75.86;94047.44;5092004;28;20024;-48
2021/10/09 11:15:22;;;;;;;3.10;2.47;;;;;;;8.39;76.81;94050.19;5111170;28;20126;-49
2021/10/09 11:17:55;;;;;;;4.22;2.90;;;;;;;8.39;76.86;94047.44;5111512;28;20028;-47
2021/10/09 11:20:21;;;;;;;4.18;3.78;;;;;;;8.40;76.39;94045.44;5111364;28;20094;-49
2021/10/09 11:22:49;;;;;;;2.75;2.45;;;;;;;8.51;76.89;94047.28;5111754;28;20023;-51
2021/10/09 11:25:26;;;;;;;39.33;5.90;;;;;;;8.55;77.11;94039.47;5111335;28;20155;-48
2021/10/09 11:27:53;;;;;;;4.30;2.63;;;;;;;8.54;75.84;94043.47;5111267;28;20522;-50
2021/10/09 11:30:19;;;;;;;3.78;3.38;;;;;;;8.54;76.02;94041.47;5111279;28;20462;-48
2021/10/09 11:32:44;;;;;;;3.30;2.47;;;;;;;8.45;75.81;94041.84;5110965;28;20028;-48
2021/10/09 11:35:11;;;;;;;4.53;2.60;;;;;;;8.44;75.61;94034.88;5111511;28;20564;-48
2021/10/09 11:37:46;;;;;;;7.45;4.00;;;;;;;8.34;76.70;94041.97;5111450;28;20032;-48
2021/10/09 11:40:11;;;;;;;21.67;10.15;;;;;;;8.36;77.12;94039.47;5091563;28;20032;-50
2021/10/09 11:42:57;;;;;;;22.65;12.00;;;;;;;8.36;77.58;94037.47;5102356;28;20636;-49
2021/10/09 11:45:32;;;;;;;7.13;3.95;;;;;;;8.45;77.15;94036.34;5107331;28;20012;-48
2021/10/09 11:53:59;;;;;;;5.05;3.25;;;;;;;8.42;77.21;94031.91;5090670;28;20524;-49
2021/10/09 11:56:25;;;;;;;5.28;2.45;;;;;;;8.43;76.56;94041.63;5107487;28;20026;-48
2021/10/09 11:59:02;;;;;;;7.32;3.50;;;;;;;8.47;77.15;94038.59;5106135;28;20036;-48
2021/10/09 12:01:41;;;;;;;7.38;4.70;;;;;;;8.36;76.89;94033.94;5092783;28;20031;-45
2021/10/09 12:04:15;;;;;;;4.75;4.18;;;;;;;8.40;76.81;94034.44;5091038;28;20020;-48
2021/10/09 12:06:54;;;;;;;2.72;2.22;;;;;;;8.45;77.62;94030.84;5090577;28;20493;-49
2021/10/09 12:09:32;;;;;;;3.95;3.45;;;;;;;8.49;76.97;94027.81;5090560;28;20036;-48
2021/10/09 12:12:12;;;;;;;3.47;2.60;;;;;;;8.57;77.64;94026.69;5090102;28;20024;-48
2021/10/09 12:14:38;;;;;;;5.43;4.35;;;;;;;8.59;77.62;94035.16;5103975;28;20068;-49
2021/10/09 12:17:03;;;;;;;6.15;5.20;;;;;;;8.60;76.56;94030.41;5110566;28;20028;-47
2021/10/09 12:19:30;;;;;;;5.80;4.28;;;;;;;8.61;76.91;94031.88;5110488;28;20512;-47
2021/10/09 12:22:00;;;;;;;4.15;3.05;;;;;;;8.60;76.16;94028.38;5110481;28;20059;-47
2021/10/09 12:24:47;;;;;;;2.65;2.38;;;;;;;8.59;76.66;94026.16;5110455;28;20027;-46
2021/10/09 12:27:18;;;;;;;3.75;3.33;;;;;;;8.51;76.92;94031.50;5109849;28;20067;-48
2021/10/09 12:30:09;;;;;;;2.65;2.35;;;;;;;8.35;76.85;94024.97;5110500;28;20040;-48
2021/10/09 12:32:40;;;;;;;3.53;3.08;;;;;;;8.32;77.05;94025.25;5094294;28;20028;-48
2021/10/09 12:35:26;;;;;;;2.50;2.10;;;;;;;8.33;77.34;94027.50;5096285;28;20031;-48
2021/10/09 12:38:09;;;;;;;3.85;3.17;;;;;;;8.35;78.34;94016.72;5089586;28;20053;-50
2021/10/09 12:40:44;;;;;;;5.10;3.60;;;;;;;8.28;77.83;94025.56;5089343;28;20115;-47
2021/10/09 12:43:12;;;;;;;2.50;2.00;;;;;;;8.21;77.50;94017.88;5089537;28;20032;-46
2021/10/09 12:45:42;;;;;;;3.40;3.10;;;;;;;8.16;77.44;94018.69;5088215;28;20030;-46
2021/10/09 12:48:08;;;;;;;12.23;8.85;;;;;;;7.90;77.70;94002.03;5089140;28;20509;-48
2021/10/09 12:50:36;;;;;;;10.75;7.57;;;;;;;7.94;78.07;94010.72;5090290;28;20081;-47
2021/10/09 12:53:02;;;;;;;5.07;3.45;;;;;;;7.76;78.15;94022.41;5110187;28;20078;-47
2021/10/09 12:55:33;;;;;;;5.72;4.10;;;;;;;7.75;79.16;94020.19;5109664;28;20020;-48
2021/10/09 12:57:59;;;;;;;3.70;3.08;;;;;;;7.78;79.77;94019.13;5108989;28;20039;-48
2021/10/09 13:00:26;;;;;;;2.60;2.33;;;;;;;7.73;79.14;94028.97;5109505;28;20033;-46
2021/10/09 13:02:51;;;;;;;2.58;2.35;;;;;;;7.74;79.86;94026.94;5109289;28;20535;-47
2021/10/09 13:05:22;;;;;;;4.05;3.65;;;;;;;7.72;79.41;94034.94;5109505;28;20031;-46
2021/10/09 13:07:48;;;;;;;2.10;1.63;;;;;;;7.71;79.80;94030.72;5109311;27;20579;-47
2021/10/09 13:10:14;;;;;;;2.85;1.30;;;;;;;7.73;79.33;94028.97;5109168;28;20512;-46
2021/10/09 13:12:40;;;;;;;2.65;1.58;;;;;;;7.72;79.21;94038.44;5108955;28;20592;-45
2021/10/09 13:15:06;;;;;;;1.98;1.77;;;;;;;7.72;79.82;94037.69;5108618;28;20039;-48
2021/10/09 13:17:31;;;;;;;3.20;2.28;;;;;;;7.71;79.80;94045.19;5108749;28;20078;-48
2021/10/09 13:19:57;;;;;;;4.38;3.38;;;;;;;7.71;79.92;94052.72;5091402;28;20111;-47
2021/10/09 13:22:22;;;;;;;3.92;2.45;;;;;;;7.69;79.79;94047.00;5089724;28;20026;-47
2021/10/09 13:24:48;;;;;;;3.53;2.47;;;;;;;7.63;79.84;94049.78;5109423;28;20168;-48
2021/10/09 13:27:13;;;;;;;3.17;2.88;;;;;;;7.53;78.97;94056.88;5108969;28;20546;-48
2021/10/09 13:29:39;;;;;;;3.15;2.92;;;;;;;7.56;80.18;94058.59;5106423;28;20140;-47
2021/10/09 13:32:05;;;;;;;5.40;3.95;;;;;;;7.51;79.23;94071.13;5088708;28;20030;-46
2021/10/09 13:34:31;;;;;;;6.60;4.10;;;;;;;7.47;80.16;94070.66;5088699;28;20527;-48
2021/10/09 13:36:56;;;;;;;3.90;3.28;;;;;;;7.53;80.02;94087.84;5088471;28;20028;-47
2021/10/09 13:39:22;;;;;;;4.30;1.92;;;;;;;7.56;80.04;94086.06;5087300;28;20097;-47
2021/10/09 13:41:47;;;;;;;3.53;2.95;;;;;;;7.55;80.05;94088.09;5088368;28;20088;-48
2021/10/09 13:44:13;;;;;;;3.88;2.65;;;;;;;7.52;80.54;94091.84;5088773;28;20024;-46
2021/10/09 13:46:38;;;;;;;2.17;1.85;;;;;;;7.48;79.71;94091.41;5088842;28;20481;-49
2021/10/09 13:49:07;;;;;;;4.60;2.70;;;;;;;7.41;79.64;94097.44;5107482;28;20531;-47
2021/10/09 13:51:33;;;;;;;15.13;9.15;;;;;;;7.48;79.85;94101.63;5108770;28;20512;-48
2021/10/09 13:53:59;;;;;;;26.42;15.75;;;;;;;7.45;80.05;94102.69;5108715;28;20038;-47
2021/10/09 13:56:25;;;;;;;15.25;11.15;;;;;;;7.37;79.88;94083.25;5106898;28;20008;-46
2021/10/09 13:58:50;;;;;;;8.20;6.78;;;;;;;7.44;79.53;94098.41;5108625;28;20036;-46
2021/10/09 14:01:16;;;;;;;8.68;5.20;;;;;;;7.41;80.25;94108.44;5108392;28;20050;-47
2021/10/09 14:03:43;;;;;;;10.27;7.57;;;;;;;7.41;80.23;94108.44;5108238;28;20023;-48
2021/10/09 14:06:09;;;;;;;7.72;6.35;;;;;;;7.26;80.43;94068.84;5103576;28;20096;-48